Airfield :
LOGIN :

Register | Disclaimer

   EN    FR    IT 

 










Legend :    VFR   Marginal VFR   IFR   Intensive IFR   Very Intensive IFR
Visi :
Ceiling :
>= 8 km
>= 3000ft
5 to 8 km
1000 to 3000 ft
1500m to 5 km
500 to 1000 ft
800 to 1500m
200 to 500 ft
< 800m
< 200 ft
Symbols :   Thunderstorms  Fog  Heavy snow  Heavy precipitations  Wind > 20 kt
SIGMETs :     Misc.  Thunderstorms  Icing  Turbulence  Mountain Waves  Volcanic Ashes







- Airport Elevation : 124 ft
- IATA code : NHT
- Download approach charts


EGWU - RAF Northolt

CURRENT METAR :
  • 250250Z AUTO 14012KT 9999 // FEW034/// BKN044/// 10/08 Q0995

EXPIRED METARs :
  • 250150Z AUTO 13010KT 9999 // BKN045/// 10/07 Q0996
  • 250050Z AUTO 12008KT 9999 // OVC050/// 10/06 Q0996

TAF TAF EGWU
Valid from the 24 at 18:00 until the 25 at 12:00 UTC


241630Z 2418/2512 17010KT 9999 FEW022
PROB30
TEMPO 2418/2419 SCT022
TEMPO 2501/2510 7000 RA BKN018
PROB30
TEMPO 2504/2508 BKN014
PROB30
TEMPO 2510/2512 19015G25KT 6000 SHRA BKN018CB
No reported NOTAMs for that airfield.



MET'MAP, your aeronautical weather chart ! - Copyright ORBIFLY December 2007 - Disclaimer

ORBIFLY MET'MAP TEAM :

Programming & Development : Alexandra Zaïnal
Concept & Development : Baudouin d'Aumeries
Co-Development & Prog : Marc-Olivier Méhu
Technical & hardware support : Manuel Goepfert

Contact : metmap@orbifly.com




SOURCES & CREDITS :

   NOAA